sensor_id;sensor_type;location;lat;lon;timestamp;P1;durP1;ratioP1;P2;durP2;ratioP2
57313;SDS011;53202;50.976;18.216;2023-05-08T00:03:36;10.50;;;8.80;;
57313;SDS011;53202;50.976;18.216;2023-05-08T00:13:20;14.50;;;9.30;;
57313;SDS011;53202;50.976;18.216;2023-05-08T00:23:03;16.90;;;11.00;;
57313;SDS011;53202;50.976;18.216;2023-05-08T00:32:48;3.00;;;2.70;;
57313;SDS011;53202;50.976;18.216;2023-05-08T00:35:14;31.60;;;16.60;;
57313;SDS011;53202;50.976;18.216;2023-05-08T00:45:00;10.90;;;8.90;;
57313;SDS011;53202;50.976;18.216;2023-05-08T00:54:43;11.00;;;9.10;;
57313;SDS011;53202;50.976;18.216;2023-05-08T01:04:28;22.30;;;13.90;;
57313;SDS011;53202;50.976;18.216;2023-05-08T01:14:33;14.60;;;12.40;;
57313;SDS011;53202;50.976;18.216;2023-05-08T01:25:15;13.30;;;11.10;;
57313;SDS011;53202;50.976;18.216;2023-05-08T01:36:10;16.00;;;10.20;;
57313;SDS011;53202;50.976;18.216;2023-05-08T01:41:15;21.10;;;13.80;;
57313;SDS011;53202;50.976;18.216;2023-05-08T01:51:11;15.10;;;7.90;;
57313;SDS011;53202;50.976;18.216;2023-05-08T02:01:02;20.10;;;11.10;;
57313;SDS011;53202;50.976;18.216;2023-05-08T02:03:29;25.20;;;17.50;;
57313;SDS011;53202;50.976;18.216;2023-05-08T02:13:14;15.90;;;12.80;;
57313;SDS011;53202;50.976;18.216;2023-05-08T02:23:01;10.60;;;9.50;;
57313;SDS011;53202;50.976;18.216;2023-05-08T02:32:45;17.30;;;11.80;;
57313;SDS011;53202;50.976;18.216;2023-05-08T02:42:32;14.90;;;13.40;;
57313;SDS011;53202;50.976;18.216;2023-05-08T02:52:37;9.30;;;6.60;;
57313;SDS011;53202;50.976;18.216;2023-05-08T03:02:56;32.40;;;8.40;;
57313;SDS011;53202;50.976;18.216;2023-05-08T03:12:50;8.60;;;6.90;;
57313;SDS011;53202;50.976;18.216;2023-05-08T03:22:41;16.60;;;10.20;;
57313;SDS011;53202;50.976;18.216;2023-05-08T03:32:27;15.10;;;10.20;;
57313;SDS011;53202;50.976;18.216;2023-05-08T03:42:12;10.80;;;7.40;;
57313;SDS011;53202;50.976;18.216;2023-05-08T03:52:04;16.70;;;10.10;;
57313;SDS011;53202;50.976;18.216;2023-05-08T04:01:58;19.70;;;8.60;;
57313;SDS011;53202;50.976;18.216;2023-05-08T04:12:17;10.60;;;8.10;;
57313;SDS011;53202;50.976;18.216;2023-05-08T04:22:07;24.00;;;9.80;;
57313;SDS011;53202;50.976;18.216;2023-05-08T04:31:54;13.30;;;10.90;;
57313;SDS011;53202;50.976;18.216;2023-05-08T04:41:38;16.00;;;11.70;;
57313;SDS011;53202;50.976;18.216;2023-05-08T04:51:22;15.40;;;11.90;;
57313;SDS011;53202;50.976;18.216;2023-05-08T05:01:06;17.70;;;13.80;;
57313;SDS011;53202;50.976;18.216;2023-05-08T05:10:51;11.60;;;9.30;;
57313;SDS011;53202;50.976;18.216;2023-05-08T05:20:36;10.70;;;9.60;;
57313;SDS011;53202;50.976;18.216;2023-05-08T05:30:20;10.50;;;9.40;;
57313;SDS011;53202;50.976;18.216;2023-05-08T05:40:03;15.90;;;11.60;;
57313;SDS011;53202;50.976;18.216;2023-05-08T05:49:48;7.70;;;7.00;;
57313;SDS011;53202;50.976;18.216;2023-05-08T05:59:32;5.30;;;4.80;;
57313;SDS011;53202;50.976;18.216;2023-05-08T06:09:16;9.00;;;6.20;;
57313;SDS011;53202;50.976;18.216;2023-05-08T06:19:00;17.70;;;5.80;;
57313;SDS011;53202;50.976;18.216;2023-05-08T06:28:45;5.80;;;5.30;;
57313;SDS011;53202;50.976;18.216;2023-05-08T06:38:30;11.80;;;8.20;;
57313;SDS011;53202;50.976;18.216;2023-05-08T06:48:14;12.00;;;6.60;;
57313;SDS011;53202;50.976;18.216;2023-05-08T06:57:59;2.90;;;2.60;;
57313;SDS011;53202;50.976;18.216;2023-05-08T07:07:44;10.40;;;4.80;;
57313;SDS011;53202;50.976;18.216;2023-05-08T07:17:28;4.80;;;4.40;;
57313;SDS011;53202;50.976;18.216;2023-05-08T07:27:12;5.40;;;4.40;;
57313;SDS011;53202;50.976;18.216;2023-05-08T07:29:39;8.00;;;4.80;;
57313;SDS011;53202;50.976;18.216;2023-05-08T07:39:24;13.00;;;5.90;;
57313;SDS011;53202;50.976;18.216;2023-05-08T07:49:07;7.20;;;5.60;;
57313;SDS011;53202;50.976;18.216;2023-05-08T07:58:51;8.70;;;4.80;;
57313;SDS011;53202;50.976;18.216;2023-05-08T08:08:36;4.30;;;4.00;;
57313;SDS011;53202;50.976;18.216;2023-05-08T08:18:20;5.10;;;3.50;;
57313;SDS011;53202;50.976;18.216;2023-05-08T08:28:04;3.90;;;2.20;;
57313;SDS011;53202;50.976;18.216;2023-05-08T08:37:54;5.60;;;4.40;;
57313;SDS011;53202;50.976;18.216;2023-05-08T08:47:39;6.30;;;5.30;;
57313;SDS011;53202;50.976;18.216;2023-05-08T08:57:33;2.30;;;2.10;;
57313;SDS011;53202;50.976;18.216;2023-05-08T09:07:21;5.70;;;4.00;;
57313;SDS011;53202;50.976;18.216;2023-05-08T09:17:04;6.60;;;4.40;;
57313;SDS011;53202;50.976;18.216;2023-05-08T09:26:52;10.40;;;5.10;;
57313;SDS011;53202;50.976;18.216;2023-05-08T09:37:10;6.30;;;4.20;;
57313;SDS011;53202;50.976;18.216;2023-05-08T09:47:15;4.80;;;3.20;;
57313;SDS011;53202;50.976;18.216;2023-05-08T09:57:20;2.20;;;2.00;;
57313;SDS011;53202;50.976;18.216;2023-05-08T10:07:06;0.00;;;0.00;;
57313;SDS011;53202;50.976;18.216;2023-05-08T10:16:50;1.10;;;1.00;;
57313;SDS011;53202;50.976;18.216;2023-05-08T10:26:38;4.20;;;3.60;;
57313;SDS011;53202;50.976;18.216;2023-05-08T10:36:28;3.00;;;1.70;;
57313;SDS011;53202;50.976;18.216;2023-05-08T10:46:36;5.00;;;2.70;;
57313;SDS011;53202;50.976;18.216;2023-05-08T10:56:36;2.80;;;1.70;;
57313;SDS011;53202;50.976;18.216;2023-05-08T11:27:00;8.50;;;4.00;;
57313;SDS011;53202;50.976;18.216;2023-05-08T11:37:07;5.70;;;2.10;;
57313;SDS011;53202;50.976;18.216;2023-05-08T11:47:10;3.20;;;2.40;;
57313;SDS011;53202;50.976;18.216;2023-05-08T11:56:59;2.80;;;1.90;;
57313;SDS011;53202;50.976;18.216;2023-05-08T12:06:43;4.90;;;2.00;;
57313;SDS011;53202;50.976;18.216;2023-05-08T12:16:35;3.00;;;2.70;;
57313;SDS011;53202;50.976;18.216;2023-05-08T12:26:20;5.10;;;2.10;;
57313;SDS011;53202;50.976;18.216;2023-05-08T12:36:04;2.90;;;2.50;;
57313;SDS011;53202;50.976;18.216;2023-05-08T12:45:56;2.10;;;1.30;;
57313;SDS011;53202;50.976;18.216;2023-05-08T12:55:55;6.70;;;2.50;;
57313;SDS011;53202;50.976;18.216;2023-05-08T13:05:50;2.30;;;1.40;;
57313;SDS011;53202;50.976;18.216;2023-05-08T13:15:37;2.40;;;2.20;;
57313;SDS011;53202;50.976;18.216;2023-05-08T13:25:21;17.90;;;2.00;;
57313;SDS011;53202;50.976;18.216;2023-05-08T13:35:05;0.90;;;0.80;;
57313;SDS011;53202;50.976;18.216;2023-05-08T13:44:48;1.20;;;0.90;;
57313;SDS011;53202;50.976;18.216;2023-05-08T13:54:32;16.60;;;6.90;;
57313;SDS011;53202;50.976;18.216;2023-05-08T14:04:16;35.90;;;3.10;;
57313;SDS011;53202;50.976;18.216;2023-05-08T14:14:00;2.10;;;1.50;;
57313;SDS011;53202;50.976;18.216;2023-05-08T14:23:44;3.50;;;2.20;;
57313;SDS011;53202;50.976;18.216;2023-05-08T14:33:28;3.80;;;1.50;;
57313;SDS011;53202;50.976;18.216;2023-05-08T14:43:14;2.90;;;1.10;;
57313;SDS011;53202;50.976;18.216;2023-05-08T14:52:57;3.00;;;2.40;;
57313;SDS011;53202;50.976;18.216;2023-05-08T15:02:42;2.50;;;2.30;;
57313;SDS011;53202;50.976;18.216;2023-05-08T15:12:25;6.80;;;3.60;;
57313;SDS011;53202;50.976;18.216;2023-05-08T15:22:11;3.90;;;1.80;;
57313;SDS011;53202;50.976;18.216;2023-05-08T15:31:55;9.20;;;3.80;;
57313;SDS011;53202;50.976;18.216;2023-05-08T15:41:38;1.50;;;1.30;;
57313;SDS011;53202;50.976;18.216;2023-05-08T15:51:23;1.30;;;0.60;;
57313;SDS011;53202;50.976;18.216;2023-05-08T16:01:11;2.50;;;1.50;;
57313;SDS011;53202;50.976;18.216;2023-05-08T16:10:55;1.90;;;1.70;;
57313;SDS011;53202;50.976;18.216;2023-05-08T16:27:57;2.60;;;2.20;;
57313;SDS011;53202;50.976;18.216;2023-05-08T16:37:42;2.90;;;1.50;;
57313;SDS011;53202;50.976;18.216;2023-05-08T16:47:28;12.70;;;2.10;;
57313;SDS011;53202;50.976;18.216;2023-05-08T16:57:12;5.30;;;3.20;;
57313;SDS011;53202;50.976;18.216;2023-05-08T17:06:57;2.30;;;1.40;;
57313;SDS011;53202;50.976;18.216;2023-05-08T17:16:43;2.90;;;2.50;;
57313;SDS011;53202;50.976;18.216;2023-05-08T17:26:30;3.50;;;1.30;;
57313;SDS011;53202;50.976;18.216;2023-05-08T17:36:15;5.70;;;3.10;;
57313;SDS011;53202;50.976;18.216;2023-05-08T17:46:02;3.90;;;2.00;;
57313;SDS011;53202;50.976;18.216;2023-05-08T17:55:45;7.60;;;2.10;;
57313;SDS011;53202;50.976;18.216;2023-05-08T18:05:30;2.60;;;2.40;;
57313;SDS011;53202;50.976;18.216;2023-05-08T18:15:14;9.00;;;2.90;;
57313;SDS011;53202;50.976;18.216;2023-05-08T18:25:00;1.90;;;1.80;;
57313;SDS011;53202;50.976;18.216;2023-05-08T18:34:46;2.20;;;2.00;;
57313;SDS011;53202;50.976;18.216;2023-05-08T18:44:30;9.90;;;5.60;;
57313;SDS011;53202;50.976;18.216;2023-05-08T18:54:14;3.10;;;2.10;;
57313;SDS011;53202;50.976;18.216;2023-05-08T19:03:59;7.20;;;4.40;;
57313;SDS011;53202;50.976;18.216;2023-05-08T19:13:46;9.00;;;6.10;;
57313;SDS011;53202;50.976;18.216;2023-05-08T19:23:32;5.50;;;3.90;;
57313;SDS011;53202;50.976;18.216;2023-05-08T19:33:15;3.00;;;2.50;;
57313;SDS011;53202;50.976;18.216;2023-05-08T19:43:04;2.60;;;2.20;;
57313;SDS011;53202;50.976;18.216;2023-05-08T19:52:48;5.80;;;4.50;;
57313;SDS011;53202;50.976;18.216;2023-05-08T20:02:32;14.20;;;6.50;;
57313;SDS011;53202;50.976;18.216;2023-05-08T20:12:16;9.10;;;4.70;;
57313;SDS011;53202;50.976;18.216;2023-05-08T20:22:00;19.90;;;8.90;;
57313;SDS011;53202;50.976;18.216;2023-05-08T20:31:48;23.30;;;7.20;;
57313;SDS011;53202;50.976;18.216;2023-05-08T20:41:33;10.00;;;7.50;;
57313;SDS011;53202;50.976;18.216;2023-05-08T20:51:18;16.40;;;3.60;;
57313;SDS011;53202;50.976;18.216;2023-05-08T21:01:04;13.40;;;5.00;;
57313;SDS011;53202;50.976;18.216;2023-05-08T21:10:48;19.50;;;9.60;;
57313;SDS011;53202;50.976;18.216;2023-05-08T21:20:32;9.10;;;5.90;;
57313;SDS011;53202;50.976;18.216;2023-05-08T21:30:15;29.10;;;8.70;;
57313;SDS011;53202;50.976;18.216;2023-05-08T21:40:01;13.40;;;8.60;;
57313;SDS011;53202;50.976;18.216;2023-05-08T21:49:48;21.00;;;11.60;;
57313;SDS011;53202;50.976;18.216;2023-05-08T21:59:34;26.50;;;13.10;;
57313;SDS011;53202;50.976;18.216;2023-05-08T22:09:19;18.60;;;11.00;;
57313;SDS011;53202;50.976;18.216;2023-05-08T22:19:02;24.00;;;14.10;;
57313;SDS011;53202;50.976;18.216;2023-05-08T22:36:05;11.40;;;7.90;;
57313;SDS011;53202;50.976;18.216;2023-05-08T22:45:51;19.40;;;12.90;;
57313;SDS011;53202;50.976;18.216;2023-05-08T22:55:35;14.70;;;11.80;;
57313;SDS011;53202;50.976;18.216;2023-05-08T23:05:21;20.80;;;13.60;;
57313;SDS011;53202;50.976;18.216;2023-05-08T23:15:06;25.40;;;8.70;;
57313;SDS011;53202;50.976;18.216;2023-05-08T23:24:53;22.20;;;9.90;;
57313;SDS011;53202;50.976;18.216;2023-05-08T23:34:40;26.50;;;11.70;;
57313;SDS011;53202;50.976;18.216;2023-05-08T23:44:32;36.00;;;11.70;;
57313;SDS011;53202;50.976;18.216;2023-05-08T23:54:16;12.00;;;8.40;;
